sensor_id;sensor_type;location;lat;lon;timestamp;P1;durP1;ratioP1;P2;durP2;ratioP2
20381;SDS011;10350;51.280;12.400;2024-01-07T00:01:23;39.90;;;33.70;;
20381;SDS011;10350;51.280;12.400;2024-01-07T00:03:50;42.25;;;36.25;;
20381;SDS011;10350;51.280;12.400;2024-01-07T00:06:16;37.90;;;33.47;;
20381;SDS011;10350;51.280;12.400;2024-01-07T00:08:42;43.17;;;34.38;;
20381;SDS011;10350;51.280;12.400;2024-01-07T00:11:10;38.30;;;34.58;;
20381;SDS011;10350;51.280;12.400;2024-01-07T00:13:36;39.30;;;34.20;;
20381;SDS011;10350;51.280;12.400;2024-01-07T00:16:02;39.72;;;33.28;;
20381;SDS011;10350;51.280;12.400;2024-01-07T00:21:12;34.17;;;30.98;;
20381;SDS011;10350;51.280;12.400;2024-01-07T00:23:38;36.42;;;32.50;;
20381;SDS011;10350;51.280;12.400;2024-01-07T00:26:05;37.67;;;34.17;;
20381;SDS011;10350;51.280;12.400;2024-01-07T00:28:32;35.55;;;31.98;;
20381;SDS011;10350;51.280;12.400;2024-01-07T00:30:58;38.70;;;33.95;;
20381;SDS011;10350;51.280;12.400;2024-01-07T00:39:23;36.13;;;32.40;;
20381;SDS011;10350;51.280;12.400;2024-01-07T00:41:56;35.63;;;32.00;;
20381;SDS011;10350;51.280;12.400;2024-01-07T00:44:28;37.00;;;33.28;;
20381;SDS011;10350;51.280;12.400;2024-01-07T00:46:54;36.70;;;33.40;;
20381;SDS011;10350;51.280;12.400;2024-01-07T00:49:23;38.08;;;34.20;;
20381;SDS011;10350;51.280;12.400;2024-01-07T00:51:49;39.28;;;35.28;;
20381;SDS011;10350;51.280;12.400;2024-01-07T00:54:15;39.33;;;34.88;;
20381;SDS011;10350;51.280;12.400;2024-01-07T00:56:41;36.33;;;33.25;;
20381;SDS011;10350;51.280;12.400;2024-01-07T00:59:07;36.08;;;32.50;;
20381;SDS011;10350;51.280;12.400;2024-01-07T01:01:35;35.70;;;32.17;;
20381;SDS011;10350;51.280;12.400;2024-01-07T01:04:01;38.30;;;33.30;;
20381;SDS011;10350;51.280;12.400;2024-01-07T01:06:27;34.70;;;31.15;;
20381;SDS011;10350;51.280;12.400;2024-01-07T01:08:53;39.55;;;35.45;;
20381;SDS011;10350;51.280;12.400;2024-01-07T01:11:19;37.03;;;33.45;;
20381;SDS011;10350;51.280;12.400;2024-01-07T01:13:45;37.65;;;33.75;;
20381;SDS011;10350;51.280;12.400;2024-01-07T01:16:11;38.58;;;34.85;;
20381;SDS011;10350;51.280;12.400;2024-01-07T01:18:37;35.22;;;32.00;;
20381;SDS011;10350;51.280;12.400;2024-01-07T01:21:02;40.33;;;34.38;;
20381;SDS011;10350;51.280;12.400;2024-01-07T01:23:29;36.25;;;33.13;;
20381;SDS011;10350;51.280;12.400;2024-01-07T01:26:03;34.20;;;31.13;;
20381;SDS011;10350;51.280;12.400;2024-01-07T01:28:29;34.42;;;30.88;;
20381;SDS011;10350;51.280;12.400;2024-01-07T01:30:55;35.85;;;32.53;;
20381;SDS011;10350;51.280;12.400;2024-01-07T01:33:21;37.42;;;34.05;;
20381;SDS011;10350;51.280;12.400;2024-01-07T01:35:47;35.22;;;32.10;;
20381;SDS011;10350;51.280;12.400;2024-01-07T01:38:13;37.58;;;34.25;;
20381;SDS011;10350;51.280;12.400;2024-01-07T01:40:39;36.95;;;33.45;;
20381;SDS011;10350;51.280;12.400;2024-01-07T01:43:05;37.25;;;33.78;;
20381;SDS011;10350;51.280;12.400;2024-01-07T01:45:31;36.40;;;33.25;;
20381;SDS011;10350;51.280;12.400;2024-01-07T01:47:57;37.42;;;33.85;;
20381;SDS011;10350;51.280;12.400;2024-01-07T01:50:23;36.15;;;32.85;;
20381;SDS011;10350;51.280;12.400;2024-01-07T01:52:57;37.75;;;33.45;;
20381;SDS011;10350;51.280;12.400;2024-01-07T01:55:26;36.65;;;33.38;;
20381;SDS011;10350;51.280;12.400;2024-01-07T01:57:52;35.35;;;32.38;;
20381;SDS011;10350;51.280;12.400;2024-01-07T02:00:18;37.83;;;34.40;;
20381;SDS011;10350;51.280;12.400;2024-01-07T02:02:44;36.58;;;33.42;;
20381;SDS011;10350;51.280;12.400;2024-01-07T02:05:10;38.00;;;35.03;;
20381;SDS011;10350;51.280;12.400;2024-01-07T02:07:38;37.13;;;33.88;;
20381;SDS011;10350;51.280;12.400;2024-01-07T02:10:04;36.70;;;33.50;;
20381;SDS011;10350;51.280;12.400;2024-01-07T02:12:31;37.30;;;34.10;;
20381;SDS011;10350;51.280;12.400;2024-01-07T02:14:57;36.92;;;33.88;;
20381;SDS011;10350;51.280;12.400;2024-01-07T02:17:22;33.22;;;30.52;;
20381;SDS011;10350;51.280;12.400;2024-01-07T02:19:48;33.65;;;30.95;;
20381;SDS011;10350;51.280;12.400;2024-01-07T02:22:14;32.92;;;29.92;;
20381;SDS011;10350;51.280;12.400;2024-01-07T02:24:40;33.90;;;31.23;;
20381;SDS011;10350;51.280;12.400;2024-01-07T02:27:06;31.70;;;29.30;;
20381;SDS011;10350;51.280;12.400;2024-01-07T02:29:32;31.60;;;29.20;;
20381;SDS011;10350;51.280;12.400;2024-01-07T02:31:58;32.42;;;29.73;;
20381;SDS011;10350;51.280;12.400;2024-01-07T02:34:24;33.55;;;31.10;;
20381;SDS011;10350;51.280;12.400;2024-01-07T02:36:50;32.90;;;30.05;;
20381;SDS011;10350;51.280;12.400;2024-01-07T02:39:16;34.50;;;31.77;;
20381;SDS011;10350;51.280;12.400;2024-01-07T02:41:45;31.58;;;29.33;;
20381;SDS011;10350;51.280;12.400;2024-01-07T02:44:17;33.75;;;31.20;;
20381;SDS011;10350;51.280;12.400;2024-01-07T02:46:43;32.83;;;30.42;;
20381;SDS011;10350;51.280;12.400;2024-01-07T02:49:11;41.28;;;32.55;;
20381;SDS011;10350;51.280;12.400;2024-01-07T02:51:37;33.63;;;30.92;;
20381;SDS011;10350;51.280;12.400;2024-01-07T02:54:03;30.90;;;28.55;;
20381;SDS011;10350;51.280;12.400;2024-01-07T02:56:35;32.05;;;29.35;;
20381;SDS011;10350;51.280;12.400;2024-01-07T02:59:01;33.05;;;29.95;;
20381;SDS011;10350;51.280;12.400;2024-01-07T03:01:27;33.33;;;30.75;;
20381;SDS011;10350;51.280;12.400;2024-01-07T03:03:53;34.72;;;31.95;;
20381;SDS011;10350;51.280;12.400;2024-01-07T03:06:19;32.80;;;30.20;;
20381;SDS011;10350;51.280;12.400;2024-01-07T03:08:45;32.75;;;30.40;;
20381;SDS011;10350;51.280;12.400;2024-01-07T03:11:11;34.13;;;31.63;;
20381;SDS011;10350;51.280;12.400;2024-01-07T03:13:37;33.88;;;31.05;;
20381;SDS011;10350;51.280;12.400;2024-01-07T03:16:03;32.58;;;30.05;;
20381;SDS011;10350;51.280;12.400;2024-01-07T03:18:29;33.88;;;31.13;;
20381;SDS011;10350;51.280;12.400;2024-01-07T03:20:55;31.20;;;28.75;;
20381;SDS011;10350;51.280;12.400;2024-01-07T03:23:21;32.72;;;30.02;;
20381;SDS011;10350;51.280;12.400;2024-01-07T03:25:46;33.05;;;30.50;;
20381;SDS011;10350;51.280;12.400;2024-01-07T03:28:12;32.08;;;29.48;;
20381;SDS011;10350;51.280;12.400;2024-01-07T03:30:38;30.17;;;27.65;;
20381;SDS011;10350;51.280;12.400;2024-01-07T03:33:04;29.73;;;27.20;;
20381;SDS011;10350;51.280;12.400;2024-01-07T03:35:30;28.63;;;26.58;;
20381;SDS011;10350;51.280;12.400;2024-01-07T03:37:56;31.25;;;28.45;;
20381;SDS011;10350;51.280;12.400;2024-01-07T03:40:22;31.00;;;28.48;;
20381;SDS011;10350;51.280;12.400;2024-01-07T03:42:48;27.85;;;25.58;;
20381;SDS011;10350;51.280;12.400;2024-01-07T03:45:14;31.23;;;28.23;;
20381;SDS011;10350;51.280;12.400;2024-01-07T03:47:40;30.20;;;27.88;;
20381;SDS011;10350;51.280;12.400;2024-01-07T03:50:06;28.33;;;25.92;;
20381;SDS011;10350;51.280;12.400;2024-01-07T03:52:32;29.85;;;27.52;;
20381;SDS011;10350;51.280;12.400;2024-01-07T03:54:59;29.00;;;26.93;;
20381;SDS011;10350;51.280;12.400;2024-01-07T03:57:25;26.63;;;24.80;;
20381;SDS011;10350;51.280;12.400;2024-01-07T03:59:51;28.13;;;25.92;;
20381;SDS011;10350;51.280;12.400;2024-01-07T04:02:17;28.27;;;26.20;;
20381;SDS011;10350;51.280;12.400;2024-01-07T04:04:43;27.17;;;24.88;;
20381;SDS011;10350;51.280;12.400;2024-01-07T04:07:10;29.13;;;27.02;;
20381;SDS011;10350;51.280;12.400;2024-01-07T04:09:36;27.13;;;25.17;;
20381;SDS011;10350;51.280;12.400;2024-01-07T04:12:02;29.02;;;26.65;;
20381;SDS011;10350;51.280;12.400;2024-01-07T04:14:28;28.15;;;25.70;;
20381;SDS011;10350;51.280;12.400;2024-01-07T04:16:55;26.75;;;25.00;;
20381;SDS011;10350;51.280;12.400;2024-01-07T04:19:20;26.60;;;24.65;;
20381;SDS011;10350;51.280;12.400;2024-01-07T04:21:46;25.60;;;23.52;;
20381;SDS011;10350;51.280;12.400;2024-01-07T04:24:13;26.70;;;24.50;;
20381;SDS011;10350;51.280;12.400;2024-01-07T04:26:39;28.45;;;26.45;;
20381;SDS011;10350;51.280;12.400;2024-01-07T04:29:05;28.98;;;26.63;;
20381;SDS011;10350;51.280;12.400;2024-01-07T04:31:31;27.73;;;26.02;;
20381;SDS011;10350;51.280;12.400;2024-01-07T04:34:02;28.92;;;27.02;;
20381;SDS011;10350;51.280;12.400;2024-01-07T04:36:29;28.98;;;26.65;;
20381;SDS011;10350;51.280;12.400;2024-01-07T04:38:55;25.60;;;23.90;;
20381;SDS011;10350;51.280;12.400;2024-01-07T04:41:21;27.48;;;25.55;;
20381;SDS011;10350;51.280;12.400;2024-01-07T04:43:49;27.95;;;26.05;;
20381;SDS011;10350;51.280;12.400;2024-01-07T04:46:18;26.05;;;24.10;;
20381;SDS011;10350;51.280;12.400;2024-01-07T04:48:44;26.83;;;24.95;;
20381;SDS011;10350;51.280;12.400;2024-01-07T04:51:16;27.33;;;25.13;;
20381;SDS011;10350;51.280;12.400;2024-01-07T04:53:42;28.38;;;26.50;;
20381;SDS011;10350;51.280;12.400;2024-01-07T04:56:08;26.70;;;24.90;;
20381;SDS011;10350;51.280;12.400;2024-01-07T04:58:34;25.58;;;23.70;;
20381;SDS011;10350;51.280;12.400;2024-01-07T05:01:00;26.92;;;25.02;;
20381;SDS011;10350;51.280;12.400;2024-01-07T05:03:26;25.95;;;24.27;;
20381;SDS011;10350;51.280;12.400;2024-01-07T05:05:55;26.27;;;24.33;;
20381;SDS011;10350;51.280;12.400;2024-01-07T05:08:29;25.63;;;24.08;;
20381;SDS011;10350;51.280;12.400;2024-01-07T05:10:55;26.08;;;24.48;;
20381;SDS011;10350;51.280;12.400;2024-01-07T05:13:21;25.63;;;24.13;;
20381;SDS011;10350;51.280;12.400;2024-01-07T05:15:47;26.30;;;24.33;;
20381;SDS011;10350;51.280;12.400;2024-01-07T05:18:19;25.73;;;24.08;;
20381;SDS011;10350;51.280;12.400;2024-01-07T05:20:45;26.70;;;24.67;;
20381;SDS011;10350;51.280;12.400;2024-01-07T05:23:11;25.13;;;23.73;;
20381;SDS011;10350;51.280;12.400;2024-01-07T05:25:41;26.13;;;24.27;;
20381;SDS011;10350;51.280;12.400;2024-01-07T05:28:07;25.70;;;23.92;;
20381;SDS011;10350;51.280;12.400;2024-01-07T05:30:33;26.52;;;24.80;;
20381;SDS011;10350;51.280;12.400;2024-01-07T05:32:59;26.05;;;24.55;;
20381;SDS011;10350;51.280;12.400;2024-01-07T05:35:25;24.77;;;23.27;;
20381;SDS011;10350;51.280;12.400;2024-01-07T05:37:51;24.63;;;23.08;;
20381;SDS011;10350;51.280;12.400;2024-01-07T05:40:17;26.40;;;24.60;;
20381;SDS011;10350;51.280;12.400;2024-01-07T05:42:43;25.60;;;23.85;;
20381;SDS011;10350;51.280;12.400;2024-01-07T05:45:09;25.90;;;24.30;;
20381;SDS011;10350;51.280;12.400;2024-01-07T05:47:35;26.27;;;24.60;;
20381;SDS011;10350;51.280;12.400;2024-01-07T05:50:01;25.92;;;24.30;;
20381;SDS011;10350;51.280;12.400;2024-01-07T05:52:27;26.13;;;24.60;;
20381;SDS011;10350;51.280;12.400;2024-01-07T05:54:56;25.65;;;23.80;;
20381;SDS011;10350;51.280;12.400;2024-01-07T05:59:57;24.48;;;23.10;;
20381;SDS011;10350;51.280;12.400;2024-01-07T06:02:23;26.85;;;24.92;;
20381;SDS011;10350;51.280;12.400;2024-01-07T06:04:51;26.10;;;24.50;;
20381;SDS011;10350;51.280;12.400;2024-01-07T06:07:20;27.00;;;25.33;;
20381;SDS011;10350;51.280;12.400;2024-01-07T06:09:46;24.20;;;22.60;;
20381;SDS011;10350;51.280;12.400;2024-01-07T06:12:17;23.98;;;22.58;;
20381;SDS011;10350;51.280;12.400;2024-01-07T06:14:43;25.92;;;24.23;;
20381;SDS011;10350;51.280;12.400;2024-01-07T06:17:09;24.67;;;23.05;;
20381;SDS011;10350;51.280;12.400;2024-01-07T06:19:37;25.45;;;23.80;;
20381;SDS011;10350;51.280;12.400;2024-01-07T06:22:03;24.90;;;23.30;;
20381;SDS011;10350;51.280;12.400;2024-01-07T06:24:28;25.55;;;23.85;;
20381;SDS011;10350;51.280;12.400;2024-01-07T06:26:54;24.15;;;22.55;;
20381;SDS011;10350;51.280;12.400;2024-01-07T06:29:20;24.88;;;23.48;;
20381;SDS011;10350;51.280;12.400;2024-01-07T06:31:46;25.40;;;23.95;;
20381;SDS011;10350;51.280;12.400;2024-01-07T06:34:13;26.65;;;24.65;;
20381;SDS011;10350;51.280;12.400;2024-01-07T06:36:40;24.67;;;23.00;;
20381;SDS011;10350;51.280;12.400;2024-01-07T06:39:06;24.58;;;23.17;;
20381;SDS011;10350;51.280;12.400;2024-01-07T06:41:32;26.05;;;24.60;;
20381;SDS011;10350;51.280;12.400;2024-01-07T06:44:10;25.05;;;23.20;;
20381;SDS011;10350;51.280;12.400;2024-01-07T06:46:38;26.05;;;24.35;;
20381;SDS011;10350;51.280;12.400;2024-01-07T06:49:04;24.38;;;22.90;;
20381;SDS011;10350;51.280;12.400;2024-01-07T06:51:30;24.98;;;23.48;;
20381;SDS011;10350;51.280;12.400;2024-01-07T06:53:56;23.85;;;22.45;;
20381;SDS011;10350;51.280;12.400;2024-01-07T06:56:21;24.40;;;22.85;;
20381;SDS011;10350;51.280;12.400;2024-01-07T06:58:49;24.00;;;22.55;;
20381;SDS011;10350;51.280;12.400;2024-01-07T07:01:17;24.92;;;23.50;;
20381;SDS011;10350;51.280;12.400;2024-01-07T07:06:09;22.88;;;21.67;;
20381;SDS011;10350;51.280;12.400;2024-01-07T07:08:35;24.58;;;23.23;;
20381;SDS011;10350;51.280;12.400;2024-01-07T07:13:59;25.08;;;23.67;;
20381;SDS011;10350;51.280;12.400;2024-01-07T07:16:25;23.63;;;22.30;;
20381;SDS011;10350;51.280;12.400;2024-01-07T07:19:10;24.85;;;23.48;;
20381;SDS011;10350;51.280;12.400;2024-01-07T07:21:43;25.02;;;23.63;;
20381;SDS011;10350;51.280;12.400;2024-01-07T07:24:27;24.58;;;23.05;;
20381;SDS011;10350;51.280;12.400;2024-01-07T07:26:53;25.23;;;23.63;;
20381;SDS011;10350;51.280;12.400;2024-01-07T07:29:21;24.33;;;23.02;;
20381;SDS011;10350;51.280;12.400;2024-01-07T07:31:48;24.35;;;22.70;;
20381;SDS011;10350;51.280;12.400;2024-01-07T07:34:22;26.50;;;25.00;;
20381;SDS011;10350;51.280;12.400;2024-01-07T07:37:24;26.95;;;24.98;;
20381;SDS011;10350;51.280;12.400;2024-01-07T07:45:27;24.58;;;23.15;;
20381;SDS011;10350;51.280;12.400;2024-01-07T07:48:05;23.70;;;22.10;;
20381;SDS011;10350;51.280;12.400;2024-01-07T07:50:31;25.95;;;24.35;;
20381;SDS011;10350;51.280;12.400;2024-01-07T07:52:57;24.77;;;23.38;;
20381;SDS011;10350;51.280;12.400;2024-01-07T07:55:23;24.80;;;23.27;;
20381;SDS011;10350;51.280;12.400;2024-01-07T07:57:49;25.38;;;23.83;;
20381;SDS011;10350;51.280;12.400;2024-01-07T08:00:16;23.55;;;22.23;;
20381;SDS011;10350;51.280;12.400;2024-01-07T08:02:42;26.45;;;24.45;;
20381;SDS011;10350;51.280;12.400;2024-01-07T08:05:08;24.90;;;23.25;;
20381;SDS011;10350;51.280;12.400;2024-01-07T08:07:34;25.00;;;23.60;;
20381;SDS011;10350;51.280;12.400;2024-01-07T08:10:00;27.02;;;25.45;;
20381;SDS011;10350;51.280;12.400;2024-01-07T08:12:26;25.30;;;23.83;;
20381;SDS011;10350;51.280;12.400;2024-01-07T08:14:52;24.27;;;22.83;;
20381;SDS011;10350;51.280;12.400;2024-01-07T08:17:18;25.63;;;24.00;;
20381;SDS011;10350;51.280;12.400;2024-01-07T08:19:44;25.38;;;23.77;;
20381;SDS011;10350;51.280;12.400;2024-01-07T08:22:09;23.60;;;22.33;;
20381;SDS011;10350;51.280;12.400;2024-01-07T08:24:35;24.95;;;23.45;;
20381;SDS011;10350;51.280;12.400;2024-01-07T08:27:01;24.67;;;23.27;;
20381;SDS011;10350;51.280;12.400;2024-01-07T08:29:28;52.65;;;32.10;;
20381;SDS011;10350;51.280;12.400;2024-01-07T08:31:54;25.17;;;23.67;;
20381;SDS011;10350;51.280;12.400;2024-01-07T08:34:19;24.85;;;23.20;;
20381;SDS011;10350;51.280;12.400;2024-01-07T08:36:45;24.38;;;22.88;;
20381;SDS011;10350;51.280;12.400;2024-01-07T08:39:14;25.58;;;24.10;;
20381;SDS011;10350;51.280;12.400;2024-01-07T08:41:40;25.33;;;23.73;;
20381;SDS011;10350;51.280;12.400;2024-01-07T08:44:06;23.95;;;22.65;;
20381;SDS011;10350;51.280;12.400;2024-01-07T08:46:35;24.30;;;23.00;;
20381;SDS011;10350;51.280;12.400;2024-01-07T08:49:01;25.67;;;24.27;;
20381;SDS011;10350;51.280;12.400;2024-01-07T08:51:28;25.73;;;24.38;;
20381;SDS011;10350;51.280;12.400;2024-01-07T08:53:57;24.10;;;22.70;;
20381;SDS011;10350;51.280;12.400;2024-01-07T08:56:24;22.63;;;21.42;;
20381;SDS011;10350;51.280;12.400;2024-01-07T08:58:50;24.65;;;23.23;;
20381;SDS011;10350;51.280;12.400;2024-01-07T09:01:17;25.05;;;23.65;;
20381;SDS011;10350;51.280;12.400;2024-01-07T09:03:43;24.83;;;23.42;;
20381;SDS011;10350;51.280;12.400;2024-01-07T09:06:09;24.08;;;22.67;;
20381;SDS011;10350;51.280;12.400;2024-01-07T09:08:35;24.23;;;22.52;;
20381;SDS011;10350;51.280;12.400;2024-01-07T09:11:03;23.77;;;22.48;;
20381;SDS011;10350;51.280;12.400;2024-01-07T09:13:31;25.33;;;23.83;;
20381;SDS011;10350;51.280;12.400;2024-01-07T09:15:57;23.13;;;21.85;;
20381;SDS011;10350;51.280;12.400;2024-01-07T09:18:23;22.88;;;21.67;;
20381;SDS011;10350;51.280;12.400;2024-01-07T09:20:49;25.02;;;23.45;;
20381;SDS011;10350;51.280;12.400;2024-01-07T09:23:15;25.05;;;23.65;;
20381;SDS011;10350;51.280;12.400;2024-01-07T09:25:41;24.65;;;23.33;;
20381;SDS011;10350;51.280;12.400;2024-01-07T09:28:07;23.85;;;22.55;;
20381;SDS011;10350;51.280;12.400;2024-01-07T09:30:33;25.17;;;23.73;;
20381;SDS011;10350;51.280;12.400;2024-01-07T09:32:59;24.98;;;23.30;;
20381;SDS011;10350;51.280;12.400;2024-01-07T09:35:24;25.38;;;23.98;;
20381;SDS011;10350;51.280;12.400;2024-01-07T09:37:50;25.33;;;23.73;;
20381;SDS011;10350;51.280;12.400;2024-01-07T09:40:17;25.70;;;24.10;;
20381;SDS011;10350;51.280;12.400;2024-01-07T09:42:44;24.95;;;23.58;;
20381;SDS011;10350;51.280;12.400;2024-01-07T09:45:24;24.23;;;22.95;;
20381;SDS011;10350;51.280;12.400;2024-01-07T09:47:50;23.42;;;22.23;;
20381;SDS011;10350;51.280;12.400;2024-01-07T09:50:16;24.13;;;22.83;;
20381;SDS011;10350;51.280;12.400;2024-01-07T09:52:43;23.52;;;22.23;;
20381;SDS011;10350;51.280;12.400;2024-01-07T09:55:18;24.23;;;22.92;;
20381;SDS011;10350;51.280;12.400;2024-01-07T09:57:47;26.60;;;25.20;;
20381;SDS011;10350;51.280;12.400;2024-01-07T10:00:16;25.50;;;24.05;;
20381;SDS011;10350;51.280;12.400;2024-01-07T10:05:08;25.17;;;23.73;;
20381;SDS011;10350;51.280;12.400;2024-01-07T10:07:34;23.73;;;22.42;;
20381;SDS011;10350;51.280;12.400;2024-01-07T10:12:58;25.23;;;23.73;;
20381;SDS011;10350;51.280;12.400;2024-01-07T10:15:24;23.60;;;22.40;;
20381;SDS011;10350;51.280;12.400;2024-01-07T10:17:54;24.20;;;22.85;;
20381;SDS011;10350;51.280;12.400;2024-01-07T10:20:20;23.98;;;22.58;;
20381;SDS011;10350;51.280;12.400;2024-01-07T10:22:46;24.02;;;22.73;;
20381;SDS011;10350;51.280;12.400;2024-01-07T10:25:21;23.00;;;21.80;;
20381;SDS011;10350;51.280;12.400;2024-01-07T10:27:47;23.95;;;22.65;;
20381;SDS011;10350;51.280;12.400;2024-01-07T10:30:14;22.83;;;21.63;;
20381;SDS011;10350;51.280;12.400;2024-01-07T10:32:41;24.95;;;23.45;;
20381;SDS011;10350;51.280;12.400;2024-01-07T10:35:08;25.45;;;23.83;;
20381;SDS011;10350;51.280;12.400;2024-01-07T10:37:37;24.27;;;22.98;;
20381;SDS011;10350;51.280;12.400;2024-01-07T10:40:04;24.30;;;22.80;;
20381;SDS011;10350;51.280;12.400;2024-01-07T10:42:31;24.83;;;23.33;;
20381;SDS011;10350;51.280;12.400;2024-01-07T10:44:57;24.17;;;22.83;;
20381;SDS011;10350;51.280;12.400;2024-01-07T10:47:23;23.67;;;22.48;;
20381;SDS011;10350;51.280;12.400;2024-01-07T10:49:52;23.92;;;22.52;;
20381;SDS011;10350;51.280;12.400;2024-01-07T10:52:20;23.42;;;22.23;;
20381;SDS011;10350;51.280;12.400;2024-01-07T10:54:48;24.45;;;22.98;;
20381;SDS011;10350;51.280;12.400;2024-01-07T10:59:58;25.17;;;23.80;;
20381;SDS011;10350;51.280;12.400;2024-01-07T11:02:24;25.10;;;23.83;;
20381;SDS011;10350;51.280;12.400;2024-01-07T11:04:54;24.02;;;22.80;;
20381;SDS011;10350;51.280;12.400;2024-01-07T11:10:01;23.38;;;22.17;;
20381;SDS011;10350;51.280;12.400;2024-01-07T11:12:29;24.77;;;23.38;;
20381;SDS011;10350;51.280;12.400;2024-01-07T11:14:56;23.63;;;22.40;;
20381;SDS011;10350;51.280;12.400;2024-01-07T11:20:02;24.95;;;23.65;;
20381;SDS011;10350;51.280;12.400;2024-01-07T11:22:28;24.48;;;23.17;;
20381;SDS011;10350;51.280;12.400;2024-01-07T11:24:54;24.92;;;23.35;;
20381;SDS011;10350;51.280;12.400;2024-01-07T11:27:24;24.27;;;22.98;;
20381;SDS011;10350;51.280;12.400;2024-01-07T11:29:54;23.85;;;22.65;;
20381;SDS011;10350;51.280;12.400;2024-01-07T11:32:21;23.63;;;22.33;;
20381;SDS011;10350;51.280;12.400;2024-01-07T11:34:48;24.00;;;22.70;;
20381;SDS011;10350;51.280;12.400;2024-01-07T11:37:17;23.58;;;22.30;;
20381;SDS011;10350;51.280;12.400;2024-01-07T11:39:44;24.08;;;22.75;;
20381;SDS011;10350;51.280;12.400;2024-01-07T11:42:10;24.17;;;22.98;;
20381;SDS011;10350;51.280;12.400;2024-01-07T11:44:49;22.80;;;21.70;;
20381;SDS011;10350;51.280;12.400;2024-01-07T11:47:15;24.30;;;23.00;;
20381;SDS011;10350;51.280;12.400;2024-01-07T11:49:41;23.73;;;22.52;;
20381;SDS011;10350;51.280;12.400;2024-01-07T11:52:08;24.10;;;22.85;;
20381;SDS011;10350;51.280;12.400;2024-01-07T11:54:35;24.73;;;23.42;;
20381;SDS011;10350;51.280;12.400;2024-01-07T11:57:02;24.20;;;22.90;;
20381;SDS011;10350;51.280;12.400;2024-01-07T11:59:28;22.90;;;21.80;;
20381;SDS011;10350;51.280;12.400;2024-01-07T12:01:54;24.73;;;23.42;;
20381;SDS011;10350;51.280;12.400;2024-01-07T12:04:20;24.13;;;22.92;;
20381;SDS011;10350;51.280;12.400;2024-01-07T12:06:47;23.73;;;22.42;;
20381;SDS011;10350;51.280;12.400;2024-01-07T12:09:13;25.15;;;23.85;;
20381;SDS011;10350;51.280;12.400;2024-01-07T12:11:39;23.83;;;22.63;;
20381;SDS011;10350;51.280;12.400;2024-01-07T12:14:12;23.88;;;22.60;;
20381;SDS011;10350;51.280;12.400;2024-01-07T12:16:38;24.77;;;23.48;;
20381;SDS011;10350;51.280;12.400;2024-01-07T12:19:04;23.65;;;22.45;;
20381;SDS011;10350;51.280;12.400;2024-01-07T12:21:30;25.38;;;24.08;;
20381;SDS011;10350;51.280;12.400;2024-01-07T12:23:56;24.35;;;22.95;;
20381;SDS011;10350;51.280;12.400;2024-01-07T12:26:25;24.67;;;23.17;;
20381;SDS011;10350;51.280;12.400;2024-01-07T12:29:02;23.30;;;22.05;;
20381;SDS011;10350;51.280;12.400;2024-01-07T12:34:10;24.50;;;23.20;;
20381;SDS011;10350;51.280;12.400;2024-01-07T12:36:44;24.50;;;23.20;;
20381;SDS011;10350;51.280;12.400;2024-01-07T12:39:11;24.45;;;22.90;;
20381;SDS011;10350;51.280;12.400;2024-01-07T12:42:03;22.90;;;21.70;;
20381;SDS011;10350;51.280;12.400;2024-01-07T12:44:29;23.42;;;22.23;;
20381;SDS011;10350;51.280;12.400;2024-01-07T12:50:11;23.92;;;22.63;;
20381;SDS011;10350;51.280;12.400;2024-01-07T12:52:45;24.02;;;22.73;;
20381;SDS011;10350;51.280;12.400;2024-01-07T12:55:16;22.58;;;21.48;;
20381;SDS011;10350;51.280;12.400;2024-01-07T12:57:42;23.95;;;22.75;;
20381;SDS011;10350;51.280;12.400;2024-01-07T13:00:14;23.73;;;22.45;;
20381;SDS011;10350;51.280;12.400;2024-01-07T13:03:02;23.73;;;22.42;;
20381;SDS011;10350;51.280;12.400;2024-01-07T13:05:47;24.83;;;23.20;;
20381;SDS011;10350;51.280;12.400;2024-01-07T13:08:43;24.35;;;23.08;;
20381;SDS011;10350;51.280;12.400;2024-01-07T13:11:25;24.58;;;23.27;;
20381;SDS011;10350;51.280;12.400;2024-01-07T13:14:19;23.98;;;22.77;;
20381;SDS011;10350;51.280;12.400;2024-01-07T13:20:11;23.77;;;22.48;;
20381;SDS011;10350;51.280;12.400;2024-01-07T13:22:39;23.55;;;22.35;;
20381;SDS011;10350;51.280;12.400;2024-01-07T13:25:14;25.90;;;24.58;;
20381;SDS011;10350;51.280;12.400;2024-01-07T13:28:11;23.95;;;22.65;;
20381;SDS011;10350;51.280;12.400;2024-01-07T13:30:38;24.77;;;23.38;;
20381;SDS011;10350;51.280;12.400;2024-01-07T13:33:13;24.17;;;22.88;;
20381;SDS011;10350;51.280;12.400;2024-01-07T13:35:41;25.52;;;24.13;;
20381;SDS011;10350;51.280;12.400;2024-01-07T13:38:07;25.45;;;24.10;;
20381;SDS011;10350;51.280;12.400;2024-01-07T13:40:41;26.17;;;24.67;;
20381;SDS011;10350;51.280;12.400;2024-01-07T13:46:35;26.05;;;24.63;;
20381;SDS011;10350;51.280;12.400;2024-01-07T13:49:10;25.08;;;23.67;;
20381;SDS011;10350;51.280;12.400;2024-01-07T13:51:38;25.83;;;24.38;;
20381;SDS011;10350;51.280;12.400;2024-01-07T13:57:45;24.48;;;23.20;;
20381;SDS011;10350;51.280;12.400;2024-01-07T14:06:10;24.27;;;22.98;;
20381;SDS011;10350;51.280;12.400;2024-01-07T14:08:52;23.50;;;22.15;;
20381;SDS011;10350;51.280;12.400;2024-01-07T14:14:00;23.85;;;22.58;;
20381;SDS011;10350;51.280;12.400;2024-01-07T14:19:40;23.55;;;22.35;;
20381;SDS011;10350;51.280;12.400;2024-01-07T14:22:47;23.45;;;22.23;;
20381;SDS011;10350;51.280;12.400;2024-01-07T14:31:07;24.40;;;23.00;;
20381;SDS011;10350;51.280;12.400;2024-01-07T14:33:33;27.30;;;25.42;;
20381;SDS011;10350;51.280;12.400;2024-01-07T14:36:10;23.88;;;22.38;;
20381;SDS011;10350;51.280;12.400;2024-01-07T14:38:43;24.50;;;23.10;;
20381;SDS011;10350;51.280;12.400;2024-01-07T14:41:10;26.60;;;24.85;;
20381;SDS011;10350;51.280;12.400;2024-01-07T14:43:36;23.20;;;22.00;;
20381;SDS011;10350;51.280;12.400;2024-01-07T14:46:03;22.88;;;21.67;;
20381;SDS011;10350;51.280;12.400;2024-01-07T14:48:38;22.73;;;21.52;;
20381;SDS011;10350;51.280;12.400;2024-01-07T14:51:06;23.23;;;22.02;;
20381;SDS011;10350;51.280;12.400;2024-01-07T14:53:44;24.02;;;22.73;;
20381;SDS011;10350;51.280;12.400;2024-01-07T14:56:22;25.67;;;23.80;;
20381;SDS011;10350;51.280;12.400;2024-01-07T14:58:48;23.58;;;22.35;;
20381;SDS011;10350;51.280;12.400;2024-01-07T15:01:15;23.50;;;22.15;;
20381;SDS011;10350;51.280;12.400;2024-01-07T15:03:41;23.55;;;22.35;;
20381;SDS011;10350;51.280;12.400;2024-01-07T15:06:10;23.45;;;22.20;;
20381;SDS011;10350;51.280;12.400;2024-01-07T15:08:40;23.83;;;22.42;;
20381;SDS011;10350;51.280;12.400;2024-01-07T15:11:07;23.77;;;22.47;;
20381;SDS011;10350;51.280;12.400;2024-01-07T15:13:33;22.63;;;21.35;;
20381;SDS011;10350;51.280;12.400;2024-01-07T15:15:59;23.77;;;22.42;;
20381;SDS011;10350;51.280;12.400;2024-01-07T15:18:25;24.25;;;22.85;;
20381;SDS011;10350;51.280;12.400;2024-01-07T15:20:51;23.52;;;22.23;;
20381;SDS011;10350;51.280;12.400;2024-01-07T15:23:17;23.80;;;22.55;;